createdAt,value
2023-05-10T00:00:29.295Z,21.50
2023-05-10T00:01:32.078Z,21.50
2023-05-10T00:02:45.635Z,21.50
2023-05-10T00:04:06.227Z,21.50
2023-05-10T00:05:14.466Z,21.50
2023-05-10T00:08:52.910Z,21.50
2023-05-10T00:09:56.365Z,21.50
2023-05-10T00:11:03.592Z,21.50
2023-05-10T00:12:15.458Z,21.50
2023-05-10T00:13:17.958Z,21.60
2023-05-10T00:14:20.556Z,21.60
2023-05-10T00:15:23.655Z,21.50
2023-05-10T00:16:28.489Z,21.50
2023-05-10T00:17:43.571Z,21.50
2023-05-10T00:18:46.939Z,21.50
2023-05-10T00:19:51.466Z,21.50
2023-05-10T00:20:56.643Z,21.50
2023-05-10T00:21:59.347Z,21.50
2023-05-10T00:23:05.795Z,21.40
2023-05-10T00:24:13.576Z,21.60
2023-05-10T00:25:32.604Z,21.60
2023-05-10T00:26:48.275Z,21.50
2023-05-10T00:27:53.033Z,21.50
2023-05-10T00:28:56.004Z,21.50
2023-05-10T00:30:04.003Z,21.20
2023-05-10T00:31:09.455Z,21.50
2023-05-10T00:32:16.617Z,21.50
2023-05-10T00:33:24.683Z,21.50
2023-05-10T00:34:28.608Z,21.50
2023-05-10T00:36:58.546Z,21.50
2023-05-10T00:38:02.863Z,21.50
2023-05-10T00:39:06.207Z,21.50
2023-05-10T00:40:10.562Z,21.50
2023-05-10T00:41:14.749Z,21.50
2023-05-10T00:42:20.513Z,21.50
2023-05-10T00:43:23.151Z,21.50
2023-05-10T00:44:29.080Z,21.40
2023-05-10T00:45:51.516Z,21.50
2023-05-10T00:46:55.601Z,21.50
2023-05-10T00:48:01.765Z,21.50
2023-05-10T00:49:05.743Z,21.40
2023-05-10T00:50:09.437Z,21.50
2023-05-10T00:51:12.743Z,21.50
2023-05-10T00:52:15.528Z,21.40
2023-05-10T00:53:18.110Z,21.40
2023-05-10T00:55:39.764Z,21.40
2023-05-10T00:56:42.168Z,21.50
2023-05-10T00:57:45.445Z,21.40
2023-05-10T00:58:52.592Z,21.50
2023-05-10T00:59:57.049Z,21.40
2023-05-10T01:01:20.626Z,21.50
2023-05-10T01:02:28.407Z,21.50
2023-05-10T01:04:55.535Z,21.40
2023-05-10T01:05:58.062Z,21.40
2023-05-10T01:07:04.415Z,21.40
2023-05-10T01:08:09.668Z,21.40
2023-05-10T01:09:19.289Z,21.40
2023-05-10T01:10:23.101Z,21.40
2023-05-10T01:11:26.484Z,21.40
2023-05-10T01:12:31.287Z,21.40
2023-05-10T01:13:39.523Z,21.40
2023-05-10T01:14:45.401Z,21.40
2023-05-10T01:15:49.821Z,21.40
2023-05-10T01:16:57.522Z,21.40
2023-05-10T01:18:01.552Z,21.40
2023-05-10T01:19:08.508Z,21.40
2023-05-10T01:20:21.746Z,21.40
2023-05-10T01:21:39.712Z,21.40
2023-05-10T01:22:51.652Z,21.30
2023-05-10T01:24:19.582Z,21.50
2023-05-10T01:25:47.584Z,21.40
2023-05-10T01:27:03.163Z,21.40
2023-05-10T01:28:26.458Z,21.40
2023-05-10T01:29:45.692Z,21.50
2023-05-10T01:31:09.707Z,21.40
2023-05-10T01:32:29.227Z,21.40
2023-05-10T01:33:39.589Z,21.40
2023-05-10T01:34:51.001Z,21.40
2023-05-10T01:37:21.759Z,21.60
2023-05-10T01:38:27.098Z,21.40
2023-05-10T01:39:40.643Z,21.50
2023-05-10T01:40:49.673Z,21.40
2023-05-10T01:42:14.319Z,21.40
2023-05-10T01:43:29.753Z,21.40
2023-05-10T01:44:39.692Z,21.40
2023-05-10T01:46:11.829Z,21.40
2023-05-10T01:47:19.241Z,21.40
2023-05-10T01:48:33.961Z,21.40
2023-05-10T01:49:49.954Z,21.40
2023-05-10T01:50:56.529Z,21.40
2023-05-10T01:52:13.640Z,21.40
2023-05-10T01:53:19.661Z,21.40
2023-05-10T01:54:26.025Z,21.30
2023-05-10T01:55:33.485Z,21.40
2023-05-10T01:56:40.673Z,21.30
2023-05-10T01:57:45.588Z,21.40
2023-05-10T01:58:53.847Z,21.30
2023-05-10T02:00:05.678Z,21.40
2023-05-10T02:01:17.707Z,21.40
2023-05-10T02:02:21.907Z,21.40
2023-05-10T02:03:33.295Z,21.30
2023-05-10T02:04:38.607Z,21.40
2023-05-10T02:05:42.349Z,21.30
2023-05-10T02:06:49.244Z,21.40
2023-05-10T02:07:54.551Z,21.60
2023-05-10T02:08:58.530Z,21.40
2023-05-10T02:10:03.664Z,21.30
2023-05-10T02:11:06.759Z,21.30
2023-05-10T02:13:31.100Z,21.30
2023-05-10T02:14:36.550Z,21.30
2023-05-10T02:15:43.009Z,21.30
2023-05-10T02:16:50.812Z,21.40
2023-05-10T02:17:55.518Z,21.40
2023-05-10T02:19:05.844Z,21.40
2023-05-10T02:20:11.585Z,21.30
2023-05-10T02:21:18.419Z,21.30
2023-05-10T02:22:22.701Z,21.30
2023-05-10T02:23:26.704Z,21.40
2023-05-10T02:24:38.930Z,21.30
2023-05-10T02:25:44.456Z,21.30
2023-05-10T02:26:51.837Z,21.40
2023-05-10T02:28:00.604Z,21.40
2023-05-10T02:29:05.820Z,21.30
2023-05-10T02:30:09.089Z,21.30
2023-05-10T02:32:36.035Z,21.30
2023-05-10T02:33:42.054Z,21.30
2023-05-10T02:34:46.659Z,21.40
2023-05-10T02:35:53.248Z,21.30
2023-05-10T02:36:57.203Z,21.30
2023-05-10T02:38:23.545Z,21.30
2023-05-10T02:39:29.783Z,21.40
2023-05-10T02:40:34.669Z,21.30
2023-05-10T02:41:39.016Z,21.30
2023-05-10T02:42:43.818Z,21.30
2023-05-10T02:43:47.162Z,21.30
2023-05-10T02:44:52.753Z,21.30
2023-05-10T02:45:58.269Z,21.30
2023-05-10T02:47:01.114Z,21.30
2023-05-10T02:48:07.179Z,21.40
2023-05-10T02:49:12.851Z,21.30
2023-05-10T02:50:17.172Z,21.30
2023-05-10T02:51:21.175Z,21.30
2023-05-10T02:52:55.712Z,21.30
2023-05-10T02:55:44.487Z,21.30
2023-05-10T02:56:52.681Z,21.30
2023-05-10T02:58:04.396Z,21.30
2023-05-10T02:59:12.928Z,21.30
2023-05-10T03:00:16.844Z,21.30
2023-05-10T03:01:21.572Z,21.30
2023-05-10T03:03:45.226Z,21.30
2023-05-10T03:04:51.147Z,21.40
2023-05-10T03:05:57.114Z,21.40
2023-05-10T03:07:00.683Z,21.30
2023-05-10T03:08:07.326Z,21.30
2023-05-10T03:09:12.495Z,21.30
2023-05-10T03:10:17.136Z,21.20
2023-05-10T03:11:29.558Z,21.20
2023-05-10T03:13:15.107Z,21.30
2023-05-10T03:14:39.484Z,21.40
2023-05-10T03:15:53.785Z,21.70
2023-05-10T03:17:01.858Z,21.30
2023-05-10T03:18:18.276Z,21.30
2023-05-10T03:19:32.085Z,21.30
2023-05-10T03:20:39.577Z,21.30
2023-05-10T03:21:44.671Z,21.30
2023-05-10T03:22:56.601Z,21.30
2023-05-10T03:25:26.667Z,21.30
2023-05-10T03:26:30.644Z,21.30
2023-05-10T03:27:43.338Z,21.30
2023-05-10T03:28:50.503Z,21.30
2023-05-10T03:29:54.572Z,21.30
2023-05-10T03:31:00.012Z,21.30
2023-05-10T03:32:08.057Z,21.30
2023-05-10T03:33:14.337Z,21.30
2023-05-10T03:35:50.488Z,21.30
2023-05-10T03:36:56.683Z,21.30
2023-05-10T03:39:40.176Z,21.30
2023-05-10T03:40:48.473Z,21.30
2023-05-10T03:41:50.800Z,21.30
2023-05-10T03:42:55.553Z,21.30
2023-05-10T03:44:03.233Z,21.20
2023-05-10T03:46:27.097Z,21.30
2023-05-10T03:47:39.642Z,21.20
2023-05-10T03:48:49.865Z,21.30
2023-05-10T03:50:12.303Z,21.30
2023-05-10T03:52:56.995Z,21.50
2023-05-10T03:54:00.915Z,21.30
2023-05-10T03:56:22.580Z,21.30
2023-05-10T03:57:26.666Z,21.20
2023-05-10T03:58:38.408Z,21.30
2023-05-10T03:59:43.862Z,21.30
2023-05-10T04:00:47.485Z,21.30
2023-05-10T04:01:56.543Z,21.30
2023-05-10T04:03:03.149Z,21.30
2023-05-10T04:04:08.424Z,21.30
2023-05-10T04:05:11.589Z,21.30
2023-05-10T04:06:16.542Z,21.30
2023-05-10T04:07:19.606Z,21.20
2023-05-10T04:08:39.393Z,21.20
2023-05-10T04:09:46.259Z,21.20
2023-05-10T04:11:11.776Z,21.20
2023-05-10T04:12:18.303Z,21.30
2023-05-10T04:13:27.719Z,21.30
2023-05-10T04:14:33.656Z,21.30
2023-05-10T04:15:37.540Z,21.30
2023-05-10T04:17:02.158Z,21.20
2023-05-10T04:18:08.060Z,21.30
2023-05-10T04:19:34.204Z,21.20
2023-05-10T04:20:46.896Z,21.20
2023-05-10T04:21:51.530Z,21.30
2023-05-10T04:23:02.398Z,21.20
2023-05-10T04:24:09.104Z,21.30
2023-05-10T04:25:13.732Z,21.20
2023-05-10T04:26:19.753Z,21.30
2023-05-10T04:27:25.861Z,21.30
2023-05-10T04:28:46.329Z,21.20
2023-05-10T04:31:20.844Z,21.30
2023-05-10T04:32:23.376Z,21.30
2023-05-10T04:33:25.602Z,21.20
2023-05-10T04:34:27.869Z,21.20
2023-05-10T04:35:30.114Z,21.30
2023-05-10T04:36:33.604Z,21.20
2023-05-10T04:37:35.827Z,21.20
2023-05-10T04:38:38.088Z,21.30
2023-05-10T04:39:42.327Z,21.20
2023-05-10T04:40:44.992Z,21.30
2023-05-10T04:41:47.241Z,21.20
2023-05-10T04:42:49.492Z,21.20
2023-05-10T04:43:51.877Z,21.30
2023-05-10T04:44:54.233Z,21.30
2023-05-10T04:45:57.449Z,21.20
2023-05-10T04:46:59.960Z,21.30
2023-05-10T04:48:02.636Z,21.30
2023-05-10T04:49:07.639Z,21.30
2023-05-10T04:50:10.312Z,21.20
2023-05-10T04:51:13.200Z,21.30
2023-05-10T04:52:18.964Z,21.30
2023-05-10T04:54:40.411Z,21.30
2023-05-10T04:55:43.076Z,21.20
2023-05-10T04:56:46.285Z,21.30
2023-05-10T04:57:49.970Z,21.30
2023-05-10T04:58:52.604Z,21.30
2023-05-10T04:59:55.429Z,21.30
2023-05-10T05:00:59.440Z,21.30
2023-05-10T05:02:02.221Z,21.30
2023-05-10T05:03:05.195Z,21.20
2023-05-10T05:04:07.971Z,21.20
2023-05-10T05:05:10.689Z,21.20
2023-05-10T05:06:13.450Z,21.20
2023-05-10T05:07:15.848Z,21.30
2023-05-10T05:08:18.181Z,21.30
2023-05-10T05:09:21.341Z,21.20
2023-05-10T05:10:23.646Z,21.30
2023-05-10T05:11:26.963Z,21.30
2023-05-10T05:12:29.439Z,21.20
2023-05-10T05:13:32.129Z,21.20
2023-05-10T05:14:35.969Z,21.30
2023-05-10T05:15:38.223Z,21.30
2023-05-10T05:16:41.198Z,21.20
2023-05-10T05:17:44.567Z,21.20
2023-05-10T05:18:47.029Z,21.20
2023-05-10T05:19:49.660Z,21.30
2023-05-10T05:20:52.202Z,21.30
2023-05-10T05:21:54.448Z,21.20
2023-05-10T05:22:56.738Z,21.30
2023-05-10T05:23:59.870Z,21.20
2023-05-10T05:25:04.358Z,21.20
2023-05-10T05:26:06.805Z,21.20
2023-05-10T05:27:09.460Z,21.20
2023-05-10T05:28:11.893Z,21.20
2023-05-10T05:29:16.071Z,21.20
2023-05-10T05:30:22.612Z,21.30
2023-05-10T05:31:26.386Z,21.20
2023-05-10T05:32:29.514Z,21.20
2023-05-10T05:33:31.849Z,21.30
2023-05-10T05:34:35.331Z,21.30
2023-05-10T05:35:41.175Z,21.30
2023-05-10T05:36:43.813Z,21.30
2023-05-10T05:37:46.341Z,21.20
2023-05-10T05:38:49.018Z,21.30
2023-05-10T05:39:51.427Z,21.20
2023-05-10T05:40:53.632Z,21.20
2023-05-10T05:41:55.955Z,21.20
2023-05-10T05:42:59.334Z,21.20
2023-05-10T05:44:01.612Z,21.20
2023-05-10T05:45:04.339Z,21.30
2023-05-10T05:46:09.174Z,21.20
2023-05-10T05:47:11.726Z,21.20
2023-05-10T05:48:14.351Z,21.20
2023-05-10T05:49:16.993Z,21.30
2023-05-10T05:50:21.360Z,21.30
2023-05-10T05:51:24.411Z,21.30
2023-05-10T05:52:26.806Z,21.20
2023-05-10T05:53:29.046Z,21.30
2023-05-10T05:54:45.192Z,21.20
2023-05-10T05:55:57.360Z,21.20
2023-05-10T05:57:01.727Z,21.20
2023-05-10T05:58:04.262Z,21.20
2023-05-10T05:59:06.978Z,21.20
2023-05-10T06:00:15.113Z,21.30
2023-05-10T06:01:20.621Z,21.20
2023-05-10T06:02:22.972Z,21.20
2023-05-10T06:03:25.521Z,21.20
2023-05-10T06:04:28.083Z,21.30
2023-05-10T06:05:30.958Z,21.30
2023-05-10T06:06:33.250Z,21.20
2023-05-10T06:07:35.528Z,21.20
2023-05-10T06:08:38.557Z,21.30
2023-05-10T06:09:40.928Z,21.20
2023-05-10T06:10:43.752Z,21.20
2023-05-10T06:11:46.503Z,21.30
2023-05-10T06:12:49.257Z,21.20
2023-05-10T06:13:52.483Z,21.20
2023-05-10T06:14:55.550Z,21.20
2023-05-10T06:15:57.850Z,21.20
2023-05-10T06:17:01.154Z,21.20
2023-05-10T06:18:04.444Z,21.20
2023-05-10T06:19:06.701Z,21.20
2023-05-10T06:20:16.150Z,21.20
2023-05-10T06:21:18.798Z,21.20
2023-05-10T06:22:22.793Z,21.20
2023-05-10T06:23:26.502Z,21.20
2023-05-10T06:24:30.597Z,21.30
2023-05-10T06:25:32.792Z,21.20
2023-05-10T06:26:35.129Z,21.30
2023-05-10T06:27:37.848Z,21.20
2023-05-10T06:28:41.070Z,21.20
2023-05-10T06:29:43.506Z,21.20
2023-05-10T06:30:45.804Z,21.30
2023-05-10T06:31:49.424Z,21.20
2023-05-10T06:32:51.812Z,21.20
2023-05-10T06:33:56.642Z,21.20
2023-05-10T06:35:05.462Z,21.20
2023-05-10T06:36:07.804Z,21.20
2023-05-10T06:37:11.603Z,21.20
2023-05-10T06:38:13.936Z,21.20
2023-05-10T06:39:17.249Z,21.20
2023-05-10T06:40:19.520Z,21.20
2023-05-10T06:41:24.687Z,21.20
2023-05-10T06:42:28.136Z,21.20
2023-05-10T06:43:31.052Z,21.20
2023-05-10T06:44:33.532Z,21.20
2023-05-10T06:45:35.886Z,21.20
2023-05-10T06:46:40.079Z,21.20
2023-05-10T06:47:44.545Z,21.20
2023-05-10T06:48:47.685Z,21.20
2023-05-10T06:49:55.017Z,21.20
2023-05-10T06:50:59.066Z,21.20
2023-05-10T06:52:02.712Z,21.20
2023-05-10T06:53:05.105Z,21.20
2023-05-10T06:54:09.064Z,21.20
2023-05-10T06:55:12.500Z,21.20
2023-05-10T06:56:15.708Z,21.30
2023-05-10T06:57:30.593Z,21.20
2023-05-10T06:58:34.611Z,21.20
2023-05-10T06:59:37.511Z,21.10
2023-05-10T07:00:41.870Z,21.20
2023-05-10T07:01:44.276Z,21.20
2023-05-10T07:02:46.841Z,21.20
2023-05-10T07:03:50.604Z,21.20
2023-05-10T07:04:53.455Z,21.20
2023-05-10T07:06:00.794Z,21.20
2023-05-10T07:07:03.668Z,21.20
2023-05-10T07:08:06.047Z,21.20
2023-05-10T07:09:09.636Z,21.20
2023-05-10T07:10:12.653Z,21.20
2023-05-10T07:11:15.027Z,21.10
2023-05-10T07:12:17.332Z,21.20
2023-05-10T07:13:19.697Z,21.20
2023-05-10T07:14:22.001Z,21.10
2023-05-10T07:15:24.405Z,21.20
2023-05-10T07:16:26.881Z,21.20
2023-05-10T07:17:29.396Z,21.20
2023-05-10T07:18:31.693Z,21.20
2023-05-10T07:19:34.104Z,21.20
2023-05-10T07:20:36.293Z,21.20
2023-05-10T07:21:38.666Z,21.20
2023-05-10T07:22:40.879Z,21.20
2023-05-10T07:23:45.157Z,21.20
2023-05-10T07:24:47.712Z,21.20
2023-05-10T07:25:52.502Z,21.20
2023-05-10T07:26:54.796Z,21.20
2023-05-10T07:27:57.032Z,21.20
2023-05-10T07:28:59.222Z,21.20
2023-05-10T07:30:01.649Z,21.20
2023-05-10T07:31:04.050Z,21.20
2023-05-10T07:32:06.960Z,21.20
2023-05-10T07:33:10.998Z,21.20
2023-05-10T07:34:13.719Z,21.20
2023-05-10T07:35:16.570Z,21.20
2023-05-10T07:36:19.098Z,21.20
2023-05-10T07:37:21.408Z,21.20
2023-05-10T07:38:23.639Z,21.30
2023-05-10T07:39:28.004Z,21.20
2023-05-10T07:40:30.850Z,21.20
2023-05-10T07:41:35.072Z,21.30
2023-05-10T07:42:38.068Z,21.20
2023-05-10T07:43:40.959Z,21.30
2023-05-10T07:44:43.266Z,21.20
2023-05-10T07:45:45.563Z,21.30
2023-05-10T07:46:48.712Z,21.20
2023-05-10T07:47:51.560Z,21.30
2023-05-10T07:48:55.252Z,21.20
2023-05-10T07:49:57.470Z,21.30
2023-05-10T07:50:59.685Z,21.30
2023-05-10T07:52:01.993Z,21.30
2023-05-10T07:53:05.127Z,21.30
2023-05-10T07:54:07.431Z,21.30
2023-05-10T07:55:10.046Z,21.30
2023-05-10T07:56:21.492Z,21.30
2023-05-10T07:57:23.767Z,21.30
2023-05-10T07:58:26.160Z,21.30
2023-05-10T07:59:28.386Z,21.30
2023-05-10T08:00:30.738Z,21.30
2023-05-10T08:01:33.673Z,21.30
2023-05-10T08:02:36.834Z,21.30
2023-05-10T08:03:39.262Z,21.30
2023-05-10T08:04:41.676Z,21.30
2023-05-10T08:05:43.993Z,21.30
2023-05-10T08:06:46.260Z,21.30
2023-05-10T08:07:48.503Z,21.30
2023-05-10T08:08:51.678Z,21.30
2023-05-10T08:09:54.027Z,21.40
2023-05-10T08:10:56.353Z,21.40
2023-05-10T08:12:00.262Z,21.40
2023-05-10T08:13:02.863Z,21.40
2023-05-10T08:14:05.162Z,21.40
2023-05-10T08:15:08.151Z,21.40
2023-05-10T08:16:10.548Z,21.40
2023-05-10T08:17:12.841Z,21.40
2023-05-10T08:18:15.271Z,21.40
2023-05-10T08:19:22.431Z,21.50
2023-05-10T08:20:25.402Z,21.50
2023-05-10T08:21:27.638Z,21.40
2023-05-10T08:22:30.318Z,21.50
2023-05-10T08:23:32.977Z,21.50
2023-05-10T08:24:39.244Z,21.50
2023-05-10T08:25:44.021Z,21.50
2023-05-10T08:26:46.269Z,21.40
2023-05-10T08:27:48.531Z,21.50
2023-05-10T08:28:50.833Z,21.50
2023-05-10T08:29:53.139Z,21.50
2023-05-10T08:30:55.399Z,21.50
2023-05-10T08:31:57.707Z,21.50
2023-05-10T08:33:00.026Z,21.50
2023-05-10T08:34:02.378Z,21.50
2023-05-10T08:35:04.771Z,21.50
2023-05-10T08:36:07.209Z,21.60
2023-05-10T08:37:09.621Z,21.60
2023-05-10T08:38:12.013Z,21.60
2023-05-10T08:39:26.629Z,21.60
2023-05-10T08:40:33.465Z,21.60
2023-05-10T08:41:36.672Z,21.70
2023-05-10T08:42:41.325Z,21.60
2023-05-10T08:43:47.175Z,21.60
2023-05-10T08:44:49.855Z,21.60
2023-05-10T08:45:52.932Z,21.60
2023-05-10T08:46:57.184Z,21.70
2023-05-10T08:48:00.746Z,21.70
2023-05-10T08:49:04.099Z,21.70
2023-05-10T08:50:07.559Z,21.70
2023-05-10T08:51:10.749Z,21.80
2023-05-10T08:52:19.286Z,21.80
2023-05-10T08:53:25.138Z,22.00
2023-05-10T08:54:27.953Z,22.00
2023-05-10T08:55:31.101Z,22.00
2023-05-10T08:56:33.714Z,22.10
2023-05-10T08:57:36.984Z,22.20
2023-05-10T08:58:39.487Z,22.20
2023-05-10T08:59:42.306Z,22.30
2023-05-10T09:00:44.590Z,22.40
2023-05-10T09:01:47.836Z,22.30
2023-05-10T09:02:51.188Z,22.40
2023-05-10T09:03:53.694Z,22.40
2023-05-10T09:04:56.098Z,22.50
2023-05-10T09:05:58.473Z,22.50
2023-05-10T09:07:03.763Z,22.50
2023-05-10T09:08:07.100Z,22.60
2023-05-10T09:09:10.944Z,22.60
2023-05-10T09:10:14.208Z,22.70
2023-05-10T09:11:17.075Z,22.70
2023-05-10T09:12:19.426Z,22.70
2023-05-10T09:13:22.953Z,22.70
2023-05-10T09:14:25.971Z,22.70
2023-05-10T09:15:28.374Z,22.80
2023-05-10T09:16:30.643Z,22.80
2023-05-10T09:17:33.053Z,22.80
2023-05-10T09:18:35.866Z,22.80
2023-05-10T09:19:38.776Z,22.90
2023-05-10T09:20:41.323Z,22.90
2023-05-10T09:21:44.131Z,23.00
2023-05-10T09:22:46.529Z,22.90
2023-05-10T09:23:50.997Z,23.00
2023-05-10T09:25:05.536Z,23.00
2023-05-10T09:26:08.266Z,23.10
2023-05-10T09:27:10.797Z,23.10
2023-05-10T09:28:13.014Z,23.10
2023-05-10T09:29:17.498Z,23.10
2023-05-10T09:30:27.369Z,23.20
2023-05-10T09:31:44.502Z,23.20
2023-05-10T09:32:48.312Z,23.20
2023-05-10T09:33:50.875Z,23.20
2023-05-10T09:34:53.055Z,23.20
2023-05-10T09:35:55.269Z,23.30
2023-05-10T09:37:02.029Z,23.30
2023-05-10T09:38:05.234Z,23.40
2023-05-10T09:39:07.488Z,23.40
2023-05-10T09:40:13.788Z,23.40
2023-05-10T09:41:19.718Z,23.40
2023-05-10T09:42:21.969Z,23.50
2023-05-10T09:43:24.407Z,23.50
2023-05-10T09:44:27.216Z,23.50
2023-05-10T09:45:30.507Z,23.50
2023-05-10T09:46:36.852Z,23.50
2023-05-10T09:47:39.158Z,23.60
2023-05-10T09:48:45.829Z,23.60
2023-05-10T09:49:50.518Z,23.70
2023-05-10T09:50:57.491Z,23.70
2023-05-10T09:52:07.261Z,23.70
2023-05-10T09:53:09.579Z,23.80
2023-05-10T09:54:13.113Z,23.80
2023-05-10T09:55:16.235Z,23.90
2023-05-10T09:56:36.051Z,23.90
2023-05-10T09:57:38.619Z,23.90
2023-05-10T09:58:41.099Z,23.90
2023-05-10T09:59:44.056Z,24.00
2023-05-10T10:00:48.758Z,24.10
2023-05-10T10:01:52.377Z,24.10
2023-05-10T10:03:01.081Z,24.10
2023-05-10T10:04:04.762Z,24.10
2023-05-10T10:05:07.782Z,24.10
2023-05-10T10:06:18.848Z,24.20
2023-05-10T10:07:29.132Z,24.20
2023-05-10T10:08:31.437Z,24.20
2023-05-10T10:09:34.826Z,24.20
2023-05-10T10:10:37.155Z,24.20
2023-05-10T10:11:39.827Z,24.20
2023-05-10T10:12:42.539Z,24.20
2023-05-10T10:13:44.825Z,24.20
2023-05-10T10:14:48.189Z,24.30
2023-05-10T10:15:52.235Z,24.30
2023-05-10T10:17:06.640Z,24.30
2023-05-10T10:18:13.792Z,24.30
2023-05-10T10:19:16.339Z,24.20
2023-05-10T10:20:19.575Z,24.30
2023-05-10T10:21:22.811Z,24.30
2023-05-10T10:22:25.282Z,24.30
2023-05-10T10:23:28.317Z,24.40
2023-05-10T10:24:30.918Z,24.50
2023-05-10T10:25:33.294Z,24.60
2023-05-10T10:26:37.213Z,24.60
2023-05-10T10:27:42.395Z,24.70
2023-05-10T10:29:02.917Z,24.70
2023-05-10T10:30:14.429Z,24.70
2023-05-10T10:31:27.542Z,24.70
2023-05-10T10:32:47.977Z,24.70
2023-05-10T10:34:14.037Z,24.70
2023-05-10T10:35:16.907Z,24.70
2023-05-10T10:36:19.903Z,24.60
2023-05-10T10:37:22.130Z,24.60
2023-05-10T10:38:24.375Z,24.60
2023-05-10T10:39:27.565Z,24.50
2023-05-10T10:40:35.014Z,24.60
2023-05-10T10:41:38.504Z,24.60
2023-05-10T10:42:55.616Z,24.50
2023-05-10T10:44:16.846Z,24.50
2023-05-10T10:45:19.338Z,24.50
2023-05-10T10:46:22.522Z,24.50
2023-05-10T10:47:34.286Z,24.50
2023-05-10T10:48:36.970Z,24.60
2023-05-10T10:49:42.571Z,24.60
2023-05-10T10:50:50.288Z,24.60
2023-05-10T10:52:11.001Z,24.60
2023-05-10T10:53:13.997Z,24.60
2023-05-10T10:54:27.814Z,24.70
2023-05-10T10:55:31.318Z,24.70
2023-05-10T10:56:35.767Z,24.70
2023-05-10T10:57:42.037Z,24.70
2023-05-10T10:58:50.009Z,24.70
2023-05-10T10:59:52.294Z,24.80
2023-05-10T11:01:09.723Z,24.80
2023-05-10T11:02:32.132Z,24.80
2023-05-10T11:03:34.461Z,24.90
2023-05-10T11:04:44.429Z,24.90
2023-05-10T11:05:47.842Z,25.00
2023-05-10T11:07:12.487Z,25.10
2023-05-10T11:08:18.779Z,25.10
2023-05-10T11:09:25.531Z,25.10
2023-05-10T11:10:28.029Z,25.20
2023-05-10T11:11:30.504Z,25.30
2023-05-10T11:12:32.720Z,25.50
2023-05-10T11:13:40.972Z,25.50
2023-05-10T11:14:43.539Z,25.60
2023-05-10T11:15:50.604Z,25.60
2023-05-10T11:16:52.941Z,25.60
2023-05-10T11:17:56.967Z,25.70
2023-05-10T11:19:04.301Z,25.70
2023-05-10T11:20:15.713Z,25.70
2023-05-10T11:21:18.277Z,25.70
2023-05-10T11:22:20.673Z,25.70
2023-05-10T11:23:25.725Z,25.70
2023-05-10T11:24:28.174Z,25.60
2023-05-10T11:25:30.509Z,25.50
2023-05-10T11:26:33.512Z,25.40
2023-05-10T11:27:37.954Z,25.40
2023-05-10T11:28:46.597Z,25.30
2023-05-10T11:29:52.501Z,25.30
2023-05-10T11:30:55.550Z,25.30
2023-05-10T11:31:58.800Z,25.30
2023-05-10T11:33:01.119Z,25.20
2023-05-10T11:34:03.402Z,25.20
2023-05-10T11:35:08.967Z,25.20
2023-05-10T11:36:15.381Z,25.30
2023-05-10T11:37:19.130Z,25.30
2023-05-10T11:38:21.344Z,25.30
2023-05-10T11:39:27.239Z,25.40
2023-05-10T11:40:29.453Z,25.40
2023-05-10T11:41:31.842Z,25.50
2023-05-10T11:42:34.584Z,25.50
2023-05-10T11:43:39.271Z,25.50
2023-05-10T11:44:42.035Z,25.50
2023-05-10T11:45:46.083Z,25.40
2023-05-10T11:46:48.504Z,25.40
2023-05-10T11:47:51.097Z,25.40
2023-05-10T11:48:54.958Z,25.50
2023-05-10T11:49:57.921Z,25.40
2023-05-10T11:51:01.579Z,25.50
2023-05-10T11:52:07.864Z,25.50
2023-05-10T11:53:10.090Z,25.60
2023-05-10T11:54:12.407Z,25.60
2023-05-10T11:55:14.746Z,25.70
2023-05-10T11:56:17.066Z,25.70
2023-05-10T11:57:20.618Z,25.70
2023-05-10T11:58:24.322Z,25.70
2023-05-10T11:59:26.790Z,25.70
2023-05-10T12:00:29.325Z,25.60
2023-05-10T12:01:31.659Z,25.60
2023-05-10T12:02:33.997Z,25.70
2023-05-10T12:03:36.833Z,25.70
2023-05-10T12:04:39.339Z,25.70
2023-05-10T12:05:43.115Z,25.70
2023-05-10T12:06:46.045Z,25.70
2023-05-10T12:07:48.240Z,25.60
2023-05-10T12:08:54.741Z,25.70
2023-05-10T12:10:23.341Z,25.80
2023-05-10T12:11:26.279Z,25.90
2023-05-10T12:12:28.473Z,25.90
2023-05-10T12:13:30.686Z,25.90
2023-05-10T12:14:36.736Z,25.90
2023-05-10T12:15:39.011Z,26.00
2023-05-10T12:16:41.556Z,25.90
2023-05-10T12:17:44.876Z,25.90
2023-05-10T12:18:50.496Z,25.90
2023-05-10T12:19:52.685Z,25.90
2023-05-10T12:20:55.130Z,25.90
2023-05-10T12:21:57.374Z,25.90
2023-05-10T12:23:00.735Z,25.90
2023-05-10T12:24:04.004Z,25.90
2023-05-10T12:25:06.732Z,25.90
2023-05-10T12:26:12.101Z,25.80
2023-05-10T12:27:15.826Z,25.80
2023-05-10T12:28:20.318Z,25.70
2023-05-10T12:29:23.215Z,25.70
2023-05-10T12:30:26.393Z,25.70
2023-05-10T12:31:28.693Z,25.60
2023-05-10T12:32:44.970Z,25.60
2023-05-10T12:33:48.365Z,25.50
2023-05-10T12:34:53.272Z,25.40
2023-05-10T12:35:55.974Z,25.40
2023-05-10T12:36:58.226Z,25.30
2023-05-10T12:38:00.712Z,25.30
2023-05-10T12:39:03.604Z,25.20
2023-05-10T12:40:09.347Z,25.20
2023-05-10T12:41:12.796Z,25.10
2023-05-10T12:42:15.070Z,25.10
2023-05-10T12:43:17.276Z,25.10
2023-05-10T12:44:19.531Z,25.10
2023-05-10T12:45:23.129Z,25.10
2023-05-10T12:46:28.733Z,25.10
2023-05-10T12:47:31.273Z,25.10
2023-05-10T12:48:35.074Z,25.10
2023-05-10T12:49:37.465Z,25.10
2023-05-10T12:50:39.690Z,25.10
2023-05-10T12:51:41.915Z,25.20
2023-05-10T12:52:44.187Z,25.20
2023-05-10T12:53:49.612Z,25.20
2023-05-10T12:54:52.071Z,25.30
2023-05-10T12:55:54.718Z,25.30
2023-05-10T12:56:56.934Z,25.40
2023-05-10T12:57:59.156Z,25.40
2023-05-10T12:59:01.468Z,25.40
2023-05-10T13:00:04.400Z,25.40
2023-05-10T13:01:06.910Z,25.40
2023-05-10T13:02:09.635Z,25.40
2023-05-10T13:03:11.971Z,25.40
2023-05-10T13:04:14.301Z,25.40
2023-05-10T13:05:16.597Z,25.40
2023-05-10T13:06:18.773Z,25.50
2023-05-10T13:07:21.118Z,25.60
2023-05-10T13:08:23.317Z,25.60
2023-05-10T13:09:26.263Z,25.60
2023-05-10T13:10:30.432Z,25.60
2023-05-10T13:11:32.689Z,25.60
2023-05-10T13:12:35.064Z,25.60
2023-05-10T13:13:37.339Z,25.70
2023-05-10T13:14:41.469Z,25.70
2023-05-10T13:15:43.731Z,25.60
2023-05-10T13:16:45.996Z,25.60
2023-05-10T13:17:48.304Z,25.60
2023-05-10T13:18:50.558Z,25.60
2023-05-10T13:19:52.814Z,25.70
2023-05-10T13:20:55.167Z,25.80
2023-05-10T13:21:57.436Z,25.80
2023-05-10T13:22:59.699Z,25.90
2023-05-10T13:24:02.423Z,25.90
2023-05-10T13:25:04.850Z,26.00
2023-05-10T13:26:07.181Z,26.00
2023-05-10T13:27:09.488Z,26.00
2023-05-10T13:28:11.799Z,26.00
2023-05-10T13:29:14.061Z,26.00
2023-05-10T13:30:17.675Z,26.00
2023-05-10T13:31:20.059Z,25.90
2023-05-10T13:32:22.577Z,25.90
2023-05-10T13:33:24.981Z,25.80
2023-05-10T13:34:27.495Z,25.70
2023-05-10T13:35:29.782Z,25.70
2023-05-10T13:36:32.538Z,25.60
2023-05-10T13:37:38.073Z,25.60
2023-05-10T13:38:40.309Z,25.50
2023-05-10T13:39:42.537Z,25.50
2023-05-10T13:40:44.829Z,25.50
2023-05-10T13:41:47.147Z,25.50
2023-05-10T13:42:49.418Z,25.50
2023-05-10T13:43:51.722Z,25.50
2023-05-10T13:44:53.957Z,25.40
2023-05-10T13:45:56.333Z,25.40
2023-05-10T13:46:58.629Z,25.40
2023-05-10T13:48:00.893Z,25.40
2023-05-10T13:49:03.564Z,25.40
2023-05-10T13:50:06.068Z,25.40
2023-05-10T13:51:08.555Z,25.40
2023-05-10T13:52:11.133Z,25.40
2023-05-10T13:53:13.764Z,25.30
2023-05-10T13:54:16.159Z,25.30
2023-05-10T13:55:18.719Z,25.30
2023-05-10T13:56:21.471Z,25.30
2023-05-10T13:57:24.904Z,25.30
2023-05-10T13:58:27.629Z,25.30
2023-05-10T13:59:29.887Z,25.30
2023-05-10T14:00:32.182Z,25.30
2023-05-10T14:01:34.818Z,25.40
2023-05-10T14:02:37.189Z,25.30
2023-05-10T14:03:39.620Z,25.40
2023-05-10T14:04:42.098Z,25.40
2023-05-10T14:05:45.953Z,25.40
2023-05-10T14:06:48.318Z,25.40
2023-05-10T14:07:51.154Z,25.40
2023-05-10T14:08:53.506Z,25.40
2023-05-10T14:09:55.740Z,25.30
2023-05-10T14:10:58.095Z,25.20
2023-05-10T14:12:00.348Z,25.20
2023-05-10T14:13:04.153Z,25.20
2023-05-10T14:14:06.398Z,25.10
2023-05-10T14:15:08.792Z,25.00
2023-05-10T14:16:11.082Z,25.00
2023-05-10T14:17:13.402Z,25.00
2023-05-10T14:18:15.679Z,24.90
2023-05-10T14:19:18.440Z,24.90
2023-05-10T14:20:20.681Z,24.80
2023-05-10T14:21:22.879Z,24.80
2023-05-10T14:22:25.198Z,24.80
2023-05-10T14:23:29.538Z,24.70
2023-05-10T14:24:32.038Z,24.70